Warning: Javascript must be enabled to use all the features on this page!


Page Loading - Please Wait...

Click to hideNews Bulletins

Peak Streamflow for the Nation

USGS 07099060 BEAVER CREEK ABOVE HIGHWAY 115 NEAR PENROSE, CO

Fremont County, Colorado
Hydrologic Unit Code 11020002
Latitude  38°29'21", Longitude 104°59'49" NAD27
Drainage area 138  square miles
Gage datum 5,660 feet above NGVD29
Output formats
Table
Graph
Tab-separated file
peakfq (watstore) format
Reselect output format
Water
Year
Date Gage
Height
(feet)
Stream-
flow
(cfs)
1991 1991-09-04 6.00 4105
1992 1992-06-27 4.28 1395
1993 1993-06-03 4.13 1225
1994 1994-05-13 6.34 4775
1995 1995-05-30 6.55 6115
1996 1996-06-15 3.28 48.05
1997 1997-06-10 6.45 5005
1998 1998-07-29 4.81 2085
1999 1999-04-30 6.92 7275
2000 2000-05-11 4.00 1115
2001 2001-08-05 4.85 2185
2002 2002-07-05 1.78 0.245
2003 2003-09-06 7.51 1,2605
2004 2004-07-28 3.01 40.05
2005 2005-04-06 4.74 2375
2006 2006-07-05 16.66 6,9605
2007 2007-08-15 5.28 3525
2008 2008-08-18 2.31 18.05
2009 2009-06-03 3.97 1175
2010 2010-05-29 3.52 75.05
2011 2011-09-15 3.25 46.05
2012 2011-10-08 1.79 1.505
2013 2013-09-12 6.24 4995
2014 2014-05-31 2.702 34.05
2015 2015-05-19 6.65 6145
2016 2015-11-23 4.42 1705
2017 2017-08-20 4.48 2985
2018 2018-09-05 2.83 45.65
2019 2019-07-22 7.30 8945
2020 2019-11-20 3.45 90.95
2021 2021-08-04 3.76 1155
?
  Peak Gage-Height Qualification Codes.
?
  Peak Streamflow Qualification Codes.